Cook Station, Missouri
Current Conditions -  °F | °C
As of 6:53 AM on Thursday 30 Oct 2014 (Local Time) from KVIH Reporting Station
Clear Clear  
Wind Chill: 34°   Ceiling: Unl
Heat Index: 40°   Visibility: 10mi
Dew Point: 31°   Wind: 8mph
Humidity: 70%   Direction: 160°SSE
Pressure: 30.09"   Gusts: NA
Location:  37.81°N, 91.44°W
Report Text: KVIH 301153Z AUTO 16007KT 10SM CLR 04/M01 A3009 RMK AO2 SLP195 T00441006 10072 20022 56007
Loading
Personal Weather Stations






























Interactive Weather Map
Tropical Storm Tracking
New forecast layout! Learn more

10-Day Weather Forecast

Advertisements
Track Severe Weather on mobile